createdAt,value
2023-03-29T00:02:05.250Z,67.44
2023-03-29T00:05:09.320Z,67.15
2023-03-29T00:08:14.466Z,66.01
2023-03-29T00:11:17.215Z,66.25
2023-03-29T00:14:19.813Z,66.53
2023-03-29T00:17:23.997Z,66.01
2023-03-29T00:20:27.017Z,66.53
2023-03-29T00:23:29.726Z,66.93
2023-03-29T00:26:32.207Z,66.89
2023-03-29T00:29:35.048Z,67.08
2023-03-29T00:32:39.018Z,66.20
2023-03-29T00:35:42.526Z,65.97
2023-03-29T00:38:45.244Z,65.21
2023-03-29T00:41:48.113Z,65.94
2023-03-29T00:45:04.044Z,65.98
2023-03-29T00:48:09.155Z,65.85
2023-03-29T00:51:14.248Z,66.17
2023-03-29T00:54:18.651Z,65.84
2023-03-29T00:57:21.784Z,66.67
2023-03-29T01:00:29.709Z,65.90
2023-03-29T01:03:41.441Z,65.51
2023-03-29T01:06:47.939Z,65.80
2023-03-29T01:09:54.486Z,65.20
2023-03-29T01:13:01.466Z,65.74
2023-03-29T01:16:05.002Z,65.18
2023-03-29T01:19:11.535Z,65.37
2023-03-29T01:22:25.878Z,65.68
2023-03-29T01:25:33.335Z,65.09
2023-03-29T01:28:39.945Z,66.41
2023-03-29T01:31:45.623Z,66.49
2023-03-29T01:34:52.077Z,66.19
2023-03-29T01:37:58.364Z,66.83
2023-03-29T01:41:03.353Z,66.93
2023-03-29T01:44:09.280Z,67.43
2023-03-29T01:47:16.290Z,66.94
2023-03-29T01:50:20.942Z,67.16
2023-03-29T01:53:28.371Z,67.33
2023-03-29T01:56:32.070Z,66.86
2023-03-29T01:59:36.084Z,67.97
2023-03-29T02:02:40.218Z,68.03
2023-03-29T02:05:43.342Z,68.23
2023-03-29T02:08:46.591Z,69.02
2023-03-29T02:11:49.706Z,68.42
2023-03-29T02:14:53.931Z,67.97
2023-03-29T02:17:56.836Z,68.20
2023-03-29T02:21:00.194Z,67.47
2023-03-29T02:24:04.910Z,68.29
2023-03-29T02:27:07.658Z,68.04
2023-03-29T02:30:13.638Z,67.72
2023-03-29T02:33:19.206Z,67.28
2023-03-29T02:36:24.175Z,67.58
2023-03-29T02:39:27.877Z,67.54
2023-03-29T02:42:30.383Z,67.43
2023-03-29T02:45:34.641Z,68.23
2023-03-29T02:48:38.562Z,68.55
2023-03-29T02:51:41.177Z,69.43
2023-03-29T02:54:45.262Z,70.28
2023-03-29T02:57:47.794Z,71.38
2023-03-29T03:00:51.710Z,72.63
2023-03-29T03:03:54.367Z,72.82
2023-03-29T03:06:57.029Z,74.79
2023-03-29T03:09:59.560Z,74.47
2023-03-29T03:13:02.540Z,74.49
2023-03-29T03:16:07.955Z,73.75
2023-03-29T03:19:11.374Z,71.71
2023-03-29T03:22:14.902Z,69.31
2023-03-29T03:25:19.387Z,67.69
2023-03-29T03:28:24.133Z,67.49
2023-03-29T03:31:28.449Z,66.89
2023-03-29T03:34:31.030Z,63.45
2023-03-29T03:37:33.577Z,61.41
2023-03-29T03:40:36.069Z,62.25
2023-03-29T03:43:41.137Z,61.35
2023-03-29T03:46:45.056Z,62.56
2023-03-29T03:49:47.550Z,62.80
2023-03-29T03:52:50.121Z,62.96
2023-03-29T03:55:54.188Z,62.99
2023-03-29T03:58:56.716Z,64.34
2023-03-29T04:02:01.409Z,64.54
2023-03-29T04:05:04.210Z,64.24
2023-03-29T04:08:07.390Z,64.25
2023-03-29T04:11:10.519Z,63.37
2023-03-29T04:14:13.171Z,62.72
2023-03-29T04:17:17.054Z,62.61
2023-03-29T04:20:19.610Z,60.23
2023-03-29T04:23:22.168Z,59.82
2023-03-29T04:26:24.732Z,58.31
2023-03-29T04:29:27.411Z,58.15
2023-03-29T04:32:31.275Z,57.00
2023-03-29T04:35:34.269Z,54.55
2023-03-29T04:38:37.879Z,53.83
2023-03-29T04:41:41.118Z,53.00
2023-03-29T04:44:43.806Z,52.59
2023-03-29T04:47:47.719Z,51.76
2023-03-29T04:50:50.628Z,51.76
2023-03-29T04:53:53.209Z,51.07
2023-03-29T04:56:56.659Z,51.10
2023-03-29T04:59:59.298Z,51.25
2023-03-29T05:03:04.422Z,50.63
2023-03-29T05:06:08.734Z,51.04
2023-03-29T05:09:11.421Z,50.03
2023-03-29T05:12:14.075Z,50.00
2023-03-29T05:15:17.102Z,49.75
2023-03-29T05:18:21.093Z,49.38
2023-03-29T05:21:23.978Z,49.97
2023-03-29T05:24:26.632Z,49.84
2023-03-29T05:27:29.748Z,49.15
2023-03-29T05:30:32.696Z,48.74
2023-03-29T05:33:36.969Z,48.28
2023-03-29T05:36:39.793Z,48.16
2023-03-29T05:39:43.029Z,47.58
2023-03-29T05:42:45.708Z,47.22
2023-03-29T05:45:48.618Z,47.30
2023-03-29T05:48:52.560Z,47.43
2023-03-29T05:51:56.956Z,47.01
2023-03-29T05:54:59.512Z,47.43
2023-03-29T05:58:03.727Z,47.38
2023-03-29T06:01:12.619Z,47.69
2023-03-29T06:04:17.935Z,47.62
2023-03-29T06:07:20.864Z,47.56
2023-03-29T06:10:24.705Z,46.71
2023-03-29T06:13:27.803Z,46.48
2023-03-29T06:16:30.664Z,47.49
2023-03-29T06:19:34.707Z,46.67
2023-03-29T06:22:37.572Z,46.58
2023-03-29T06:25:40.481Z,45.89
2023-03-29T06:28:43.172Z,46.24
2023-03-29T06:31:46.018Z,45.65
2023-03-29T06:34:50.950Z,45.51
2023-03-29T06:37:54.413Z,44.77
2023-03-29T06:41:02.181Z,44.79
2023-03-29T06:44:05.124Z,44.93
2023-03-29T06:47:08.259Z,44.25
2023-03-29T06:50:14.582Z,44.78
2023-03-29T06:53:17.281Z,44.29
2023-03-29T06:56:19.825Z,44.00
2023-03-29T06:59:22.317Z,43.80
2023-03-29T07:02:24.928Z,43.27
2023-03-29T07:05:29.487Z,43.20
2023-03-29T07:08:32.324Z,43.26
2023-03-29T07:11:35.317Z,43.49
2023-03-29T07:14:37.985Z,42.42
2023-03-29T07:17:40.565Z,42.56
2023-03-29T07:20:44.636Z,42.30
2023-03-29T07:23:47.172Z,42.22
2023-03-29T07:27:03.515Z,42.34
2023-03-29T07:30:11.155Z,42.47
2023-03-29T07:33:14.253Z,42.24
2023-03-29T07:36:18.436Z,42.06
2023-03-29T07:39:22.270Z,41.35
2023-03-29T07:42:24.818Z,41.25
2023-03-29T07:45:29.067Z,41.40
2023-03-29T07:48:32.374Z,40.86
2023-03-29T07:51:37.008Z,40.42
2023-03-29T07:54:39.671Z,40.06
2023-03-29T07:57:43.683Z,39.76
2023-03-29T08:00:46.512Z,39.42
2023-03-29T08:03:49.232Z,39.98
2023-03-29T08:06:54.209Z,39.58
2023-03-29T08:09:57.369Z,38.87
2023-03-29T08:13:00.164Z,38.13
2023-03-29T08:16:03.374Z,37.01
2023-03-29T08:19:07.081Z,36.69
2023-03-29T08:22:10.946Z,36.35
2023-03-29T08:25:13.610Z,35.68
2023-03-29T08:28:16.094Z,36.55
2023-03-29T08:31:18.742Z,37.05
2023-03-29T08:34:21.366Z,37.77
2023-03-29T08:37:25.952Z,37.51
2023-03-29T08:40:30.129Z,37.38
2023-03-29T08:43:53.132Z,37.25
2023-03-29T08:47:02.048Z,38.01
2023-03-29T08:50:05.635Z,38.52
2023-03-29T08:53:10.092Z,38.81
2023-03-29T08:56:14.723Z,38.10
2023-03-29T08:59:20.582Z,38.08
2023-03-29T09:02:26.161Z,36.92
2023-03-29T09:05:31.165Z,36.72
2023-03-29T09:08:36.670Z,36.51
2023-03-29T09:11:58.248Z,36.85
2023-03-29T09:15:09.957Z,36.43
2023-03-29T09:18:15.619Z,36.16
2023-03-29T09:21:22.301Z,35.33
2023-03-29T09:24:38.818Z,34.93
2023-03-29T09:27:48.718Z,34.38
2023-03-29T09:30:56.426Z,34.84
2023-03-29T09:34:00.204Z,34.15
2023-03-29T09:37:04.852Z,32.87
2023-03-29T09:40:12.611Z,32.60
2023-03-29T09:43:18.313Z,32.95
2023-03-29T09:46:24.038Z,32.53
2023-03-29T09:49:29.761Z,31.09
2023-03-29T09:52:33.063Z,31.12
2023-03-29T09:55:39.526Z,30.61
2023-03-29T09:58:43.589Z,30.96
2023-03-29T10:01:46.499Z,30.58
2023-03-29T10:04:55.195Z,29.22
2023-03-29T10:08:01.085Z,29.03
2023-03-29T10:11:10.495Z,29.81
2023-03-29T10:14:16.156Z,29.54
2023-03-29T10:17:21.800Z,28.96
2023-03-29T10:20:25.753Z,27.27
2023-03-29T10:23:32.468Z,28.13
2023-03-29T10:26:38.996Z,29.24
2023-03-29T10:29:43.028Z,29.25
2023-03-29T10:32:46.237Z,27.99
2023-03-29T10:35:49.366Z,28.04
2023-03-29T10:38:52.629Z,28.19
2023-03-29T10:41:57.064Z,28.13
2023-03-29T10:45:00.616Z,28.51
2023-03-29T10:48:06.840Z,29.76
2023-03-29T10:51:09.427Z,29.74
2023-03-29T10:54:14.807Z,28.67
2023-03-29T10:57:24.589Z,28.47
2023-03-29T11:00:33.618Z,28.73
2023-03-29T11:03:55.969Z,29.25
2023-03-29T11:07:14.147Z,28.33
2023-03-29T11:10:28.350Z,27.94
2023-03-29T11:13:38.324Z,28.64
2023-03-29T11:16:45.681Z,29.30
2023-03-29T11:20:01.927Z,29.96
2023-03-29T11:23:16.449Z,29.90
2023-03-29T11:26:22.783Z,30.16
2023-03-29T11:29:29.631Z,30.72
2023-03-29T11:32:37.212Z,29.66
2023-03-29T11:35:44.763Z,29.72
2023-03-29T11:38:54.253Z,29.88
2023-03-29T11:42:01.519Z,28.81
2023-03-29T11:45:07.866Z,27.77
2023-03-29T11:48:16.538Z,27.06
2023-03-29T11:51:22.553Z,26.91
2023-03-29T11:54:29.405Z,27.50
2023-03-29T11:57:33.161Z,27.68
2023-03-29T12:00:39.452Z,28.76
2023-03-29T12:03:47.192Z,28.16
2023-03-29T12:06:54.301Z,26.47
2023-03-29T12:10:00.415Z,25.34
2023-03-29T12:13:05.700Z,24.07
2023-03-29T12:16:14.907Z,23.55
2023-03-29T12:19:20.567Z,23.37
2023-03-29T12:22:23.482Z,23.98
2023-03-29T12:25:29.412Z,25.40
2023-03-29T12:28:50.577Z,27.04
2023-03-29T12:32:02.559Z,25.83
2023-03-29T12:35:19.608Z,26.80
2023-03-29T12:38:23.755Z,27.34
2023-03-29T12:41:26.544Z,28.01
2023-03-29T12:44:29.278Z,28.21
2023-03-29T12:47:39.616Z,29.64
2023-03-29T12:50:46.866Z,30.20
2023-03-29T12:53:51.602Z,29.89
2023-03-29T12:56:58.226Z,31.28
2023-03-29T13:00:11.893Z,31.80
2023-03-29T13:03:23.242Z,31.12
2023-03-29T13:06:32.173Z,30.36
2023-03-29T13:09:37.514Z,32.34
2023-03-29T13:12:42.273Z,32.27
2023-03-29T13:15:45.751Z,31.37
2023-03-29T13:19:01.342Z,30.71
2023-03-29T13:22:12.927Z,29.90
2023-03-29T13:25:24.235Z,29.30
2023-03-29T13:28:31.196Z,29.11
2023-03-29T13:31:39.245Z,30.65
2023-03-29T13:34:47.530Z,31.52
2023-03-29T13:37:59.458Z,34.48
2023-03-29T13:41:04.167Z,35.29
2023-03-29T13:44:19.312Z,35.06
2023-03-29T13:47:43.159Z,35.89
2023-03-29T13:50:56.525Z,37.94
2023-03-29T13:54:02.862Z,38.86
2023-03-29T13:57:11.116Z,39.29
2023-03-29T14:00:18.165Z,38.51
2023-03-29T14:03:26.211Z,43.37
2023-03-29T14:06:32.884Z,47.23
2023-03-29T14:09:39.881Z,55.62
2023-03-29T14:12:42.436Z,56.65
2023-03-29T14:15:46.888Z,57.33
2023-03-29T14:18:51.410Z,56.21
2023-03-29T14:21:55.477Z,52.78
2023-03-29T14:25:02.491Z,52.02
2023-03-29T14:28:14.103Z,52.62
2023-03-29T14:31:20.530Z,53.08
2023-03-29T14:34:24.016Z,50.74
2023-03-29T14:37:29.691Z,50.17
2023-03-29T14:40:33.914Z,49.80
2023-03-29T14:43:36.496Z,48.69
2023-03-29T14:46:39.309Z,47.30
2023-03-29T14:49:41.881Z,45.53
2023-03-29T14:52:47.583Z,43.33
2023-03-29T14:55:52.857Z,44.22
2023-03-29T14:58:56.628Z,41.66
2023-03-29T15:01:59.267Z,41.37
2023-03-29T15:05:04.689Z,40.77
2023-03-29T15:08:13.667Z,38.94
2023-03-29T15:11:20.069Z,39.75
2023-03-29T15:14:23.603Z,40.22
2023-03-29T15:17:43.179Z,42.03
2023-03-29T15:20:52.589Z,41.58
2023-03-29T15:23:58.318Z,41.09
2023-03-29T15:27:03.366Z,41.07
2023-03-29T15:30:13.387Z,42.06
2023-03-29T15:33:17.767Z,40.81
2023-03-29T15:36:20.440Z,33.79
2023-03-29T15:39:24.725Z,32.18
2023-03-29T15:42:27.486Z,32.44
2023-03-29T15:45:30.109Z,32.38
2023-03-29T15:48:33.626Z,32.87
2023-03-29T15:51:36.401Z,31.87
2023-03-29T15:54:40.403Z,30.59
2023-03-29T15:57:44.722Z,30.93
2023-03-29T16:00:50.876Z,32.68
2023-03-29T16:03:53.668Z,35.37
2023-03-29T16:06:57.650Z,37.38
2023-03-29T16:10:01.643Z,39.43
2023-03-29T16:13:04.392Z,41.22
2023-03-29T16:16:08.442Z,42.67
2023-03-29T16:19:11.161Z,43.96
2023-03-29T16:22:13.763Z,43.18
2023-03-29T16:25:19.980Z,43.94
2023-03-29T16:28:22.889Z,43.09
2023-03-29T16:31:27.029Z,42.76
2023-03-29T16:34:30.059Z,43.29
2023-03-29T16:37:32.844Z,43.75
2023-03-29T16:40:37.185Z,44.72
2023-03-29T16:43:39.732Z,44.80
2023-03-29T16:46:42.531Z,45.19
2023-03-29T16:49:48.526Z,46.61
2023-03-29T16:52:52.851Z,46.18
2023-03-29T16:55:56.849Z,46.79
2023-03-29T16:58:59.409Z,47.61
2023-03-29T17:02:01.872Z,48.20
2023-03-29T17:05:06.016Z,49.22
2023-03-29T17:08:10.026Z,49.51
2023-03-29T17:11:15.512Z,49.51
2023-03-29T17:14:18.080Z,49.37
2023-03-29T17:17:20.662Z,48.43
2023-03-29T17:20:23.178Z,48.03
2023-03-29T17:23:26.612Z,49.11
2023-03-29T17:26:30.451Z,50.01
2023-03-29T17:29:33.497Z,48.53
2023-03-29T17:32:36.738Z,47.82
2023-03-29T17:35:39.685Z,49.35
2023-03-29T17:38:43.043Z,50.16
2023-03-29T17:41:47.622Z,52.52
2023-03-29T17:44:51.034Z,53.86
2023-03-29T17:47:53.524Z,54.07
2023-03-29T17:50:57.832Z,54.00
2023-03-29T17:54:01.597Z,54.52
2023-03-29T17:57:05.764Z,54.20
2023-03-29T18:00:12.129Z,53.45
2023-03-29T18:03:14.780Z,54.04
2023-03-29T18:06:20.206Z,54.48
2023-03-29T18:09:22.899Z,53.35
2023-03-29T18:12:27.085Z,52.63
2023-03-29T18:15:29.689Z,53.60
2023-03-29T18:18:32.726Z,54.72
2023-03-29T18:21:35.257Z,54.58
2023-03-29T18:24:37.890Z,52.50
2023-03-29T18:27:41.767Z,52.11
2023-03-29T18:30:44.577Z,51.23
2023-03-29T18:33:47.510Z,51.24
2023-03-29T18:36:50.791Z,51.36
2023-03-29T18:39:53.300Z,52.88
2023-03-29T18:42:57.284Z,53.24
2023-03-29T18:45:59.994Z,49.79
2023-03-29T18:49:03.110Z,52.74
2023-03-29T18:52:05.811Z,51.70
2023-03-29T18:55:10.236Z,51.23
2023-03-29T18:58:15.651Z,50.86
2023-03-29T19:01:18.297Z,49.31
2023-03-29T19:04:20.969Z,50.69
2023-03-29T19:07:23.767Z,50.16
2023-03-29T19:10:27.349Z,49.89
2023-03-29T19:13:31.226Z,48.92
2023-03-29T19:16:33.964Z,49.22
2023-03-29T19:19:37.765Z,49.08
2023-03-29T19:22:40.412Z,48.82
2023-03-29T19:28:47.184Z,48.80
2023-03-29T19:31:51.806Z,50.57
2023-03-29T19:34:54.332Z,50.75
2023-03-29T19:37:56.837Z,51.46
2023-03-29T19:40:59.531Z,51.28
2023-03-29T19:44:03.723Z,51.74
2023-03-29T19:47:06.438Z,52.35
2023-03-29T19:50:12.301Z,52.22
2023-03-29T19:53:14.997Z,52.61
2023-03-29T19:56:17.869Z,53.06
2023-03-29T19:59:21.765Z,53.17
2023-03-29T20:02:24.319Z,53.56
2023-03-29T20:05:27.292Z,53.99
2023-03-29T20:08:29.918Z,54.44
2023-03-29T20:11:32.519Z,54.81
2023-03-29T20:14:40.112Z,54.23
2023-03-29T20:17:42.815Z,54.60
2023-03-29T20:20:46.815Z,54.52
2023-03-29T20:23:49.395Z,54.08
2023-03-29T20:26:51.926Z,54.63
2023-03-29T20:29:55.935Z,54.63
2023-03-29T20:32:58.514Z,54.36
2023-03-29T20:36:01.386Z,54.46
2023-03-29T20:39:04.964Z,54.34
2023-03-29T20:42:07.458Z,54.13
2023-03-29T20:45:18.579Z,54.61
2023-03-29T20:48:23.093Z,54.96
2023-03-29T20:51:28.062Z,54.83
2023-03-29T20:54:33.199Z,54.90
2023-03-29T20:57:36.727Z,54.81
2023-03-29T21:00:40.639Z,56.03
2023-03-29T21:03:43.273Z,55.58
2023-03-29T21:06:49.571Z,55.46
2023-03-29T21:09:52.129Z,56.27
2023-03-29T21:13:00.022Z,56.13
2023-03-29T21:16:03.972Z,56.09
2023-03-29T21:19:06.558Z,55.94
2023-03-29T21:22:09.101Z,55.82
2023-03-29T21:25:15.505Z,55.94
2023-03-29T21:28:18.128Z,53.98
2023-03-29T21:31:22.074Z,52.57
2023-03-29T21:34:24.633Z,50.51
2023-03-29T21:37:27.405Z,51.29
2023-03-29T21:40:29.953Z,51.03
2023-03-29T21:43:32.682Z,50.02
2023-03-29T21:46:36.769Z,48.81
2023-03-29T21:49:39.630Z,47.12
2023-03-29T21:52:42.228Z,47.02
2023-03-29T21:55:44.858Z,45.24
2023-03-29T21:58:47.423Z,44.47
2023-03-29T22:01:51.280Z,43.62
2023-03-29T22:04:53.851Z,43.78
2023-03-29T22:07:58.700Z,43.39
2023-03-29T22:11:08.048Z,43.26
2023-03-29T22:14:10.931Z,43.25
2023-03-29T22:17:15.945Z,43.13
2023-03-29T22:20:18.958Z,43.21
2023-03-29T22:23:21.571Z,42.98
2023-03-29T22:26:27.397Z,43.23
2023-03-29T22:29:30.061Z,42.97
2023-03-29T22:32:33.913Z,42.93
2023-03-29T22:35:36.904Z,43.25
2023-03-29T22:38:39.461Z,43.09
2023-03-29T22:41:42.289Z,42.91
2023-03-29T22:44:44.797Z,42.78
2023-03-29T22:47:48.704Z,43.26
2023-03-29T22:50:51.286Z,42.77
2023-03-29T22:53:54.056Z,42.90
2023-03-29T22:56:57.568Z,42.80
2023-03-29T23:00:00.034Z,42.66
2023-03-29T23:03:04.020Z,42.75
2023-03-29T23:06:07.113Z,43.00
2023-03-29T23:09:10.283Z,43.45
2023-03-29T23:12:12.833Z,43.38
2023-03-29T23:15:16.046Z,43.67
2023-03-29T23:18:21.109Z,43.67
2023-03-29T23:21:23.796Z,43.51
2023-03-29T23:24:26.574Z,43.94
2023-03-29T23:27:29.414Z,43.59
2023-03-29T23:30:31.972Z,43.82
2023-03-29T23:33:38.506Z,43.70
2023-03-29T23:36:41.116Z,43.51
2023-03-29T23:39:43.688Z,43.32
2023-03-29T23:42:48.340Z,43.65
2023-03-29T23:45:56.654Z,43.63
2023-03-29T23:49:00.530Z,43.72
2023-03-29T23:52:03.168Z,44.37
2023-03-29T23:55:06.644Z,44.69
2023-03-29T23:58:09.152Z,45.32
